Time,TemperatureF,DewpointF,PressureIn,WindDirection,WindDirectionDegrees,WindSpeedMPH,WindSpeedGustMPH,Humidity,HourlyPrecipIn,Conditions,Clouds,dailyrainin,SoftwareType,DateUTC
2013-01-16 00:00:00,36.1,33.2,30.12,North,0,4.0,4.0,89,0.06,,---,0.61,VWS V13.00,2013-01-16 05:00:00,
2013-01-16 00:01:00,36.1,33.2,30.12,North,0,4.0,4.0,89,0.06,,---,0.00,VWS V13.00,2013-01-16 05:01:00,
2013-01-16 00:02:00,36.1,33.2,30.12,North,0,4.0,4.0,89,0.06,,---,0.00,VWS V13.00,2013-01-16 05:02:00,
2013-01-16 00:03:00,36.1,33.2,30.12,NNE,22,0.0,4.0,89,0.04,,---,0.00,VWS V13.00,2013-01-16 05:03:00,
2013-01-16 00:08:00,36.3,33.4,30.12,North,0,2.6,4.0,89,0.04,,---,0.00,VWS V13.00,2013-01-16 05:08:00,
2013-01-16 00:13:00,36.3,33.4,30.13,North,0,1.3,4.0,89,0.04,,---,0.00,VWS V13.00,2013-01-16 05:13:00,
2013-01-16 00:18:00,36.5,33.6,30.13,NE,45,1.5,4.0,89,0.06,,---,0.04,VWS V13.00,2013-01-16 05:18:00,
2013-01-16 00:23:00,36.5,33.6,30.12,NNE,22,0.0,4.4,89,0.06,,---,0.04,VWS V13.00,2013-01-16 05:23:00,
2013-01-16 00:28:00,36.5,33.6,30.11,ENE,68,0.0,4.4,89,0.08,,---,0.06,VWS V13.00,2013-01-16 05:28:00,
2013-01-16 00:33:00,36.3,33.4,30.11,NNW,338,2.4,6.0,89,0.06,,---,0.06,VWS V13.00,2013-01-16 05:33:00,
2013-01-16 00:38:00,36.3,33.7,30.11,ENE,68,0.0,6.0,90,0.06,,---,0.06,VWS V13.00,2013-01-16 05:38:00,
2013-01-16 00:43:00,36.3,33.7,30.11,NE,45,4.2,4.2,90,0.06,,---,0.06,VWS V13.00,2013-01-16 05:43:00,
2013-01-16 00:48:00,36.3,33.7,30.10,SE,135,1.5,4.2,90,0.06,,---,0.06,VWS V13.00,2013-01-16 05:48:00,
2013-01-16 00:53:00,36.3,33.7,30.10,East,90,0.0,4.2,90,0.06,,---,0.06,VWS V13.00,2013-01-16 05:53:00,
2013-01-16 00:58:00,36.3,33.7,30.09,East,90,0.0,4.2,90,0.06,,---,0.06,VWS V13.00,2013-01-16 05:58:00,
2013-01-16 01:03:00,36.3,33.7,30.10,East,90,0.0,0.0,90,0.06,,---,0.06,VWS V13.00,2013-01-16 06:03:00,
2013-01-16 01:08:00,36.3,33.7,30.10,East,90,0.0,0.0,90,0.06,,---,0.06,VWS V13.00,2013-01-16 06:08:00,
2013-01-16 01:13:00,36.3,33.7,30.09,ENE,68,0.0,1.5,90,0.06,,---,0.06,VWS V13.00,2013-01-16 06:13:00,
2013-01-16 01:18:00,36.3,33.7,30.08,East,90,6.2,6.2,90,0.08,,---,0.08,VWS V13.00,2013-01-16 06:18:00,
2013-01-16 01:23:00,36.3,33.7,30.08,ESE,112,1.5,1.5,90,0.04,,---,0.08,VWS V13.00,2013-01-16 06:23:00,
2013-01-16 01:28:00,36.3,33.7,30.08,ESE,112,1.5,1.5,90,0.04,,---,0.08,VWS V13.00,2013-01-16 06:28:00,
2013-01-16 01:33:00,36.3,33.7,30.08,ESE,112,1.5,1.5,90,0.04,,---,0.08,VWS V13.00,2013-01-16 06:33:00,
2013-01-16 01:38:00,36.3,33.7,30.08,ESE,112,1.5,1.5,90,0.04,,---,0.08,VWS V13.00,2013-01-16 06:38:00,
2013-01-16 01:43:00,36.3,33.7,30.08,ESE,112,1.5,1.5,90,0.04,,---,0.08,VWS V13.00,2013-01-16 06:43:00,
2013-01-16 01:48:00,36.3,33.7,30.08,ESE,112,1.5,1.5,90,0.04,,---,0.08,VWS V13.00,2013-01-16 06:48:00,
2013-01-16 01:53:00,36.3,33.7,30.08,ESE,112,1.5,1.5,90,0.04,,---,0.08,VWS V13.00,2013-01-16 06:53:00,
2013-01-16 01:58:00,36.3,33.7,30.08,ESE,112,1.5,1.5,90,0.04,,---,0.08,VWS V13.00,2013-01-16 06:58:00,
2013-01-16 02:03:00,36.3,33.7,30.08,ESE,112,1.5,1.5,90,0.04,,---,0.08,VWS V13.00,2013-01-16 07:03:00,
2013-01-16 02:08:00,36.3,33.7,30.08,ESE,112,1.5,1.5,90,0.04,,---,0.08,VWS V13.00,2013-01-16 07:08:00,
2013-01-16 02:13:00,36.3,33.7,30.08,ESE,112,1.5,1.5,90,0.04,,---,0.08,VWS V13.00,2013-01-16 07:13:00,
2013-01-16 02:18:00,36.3,33.7,30.08,ESE,112,1.5,1.5,90,0.04,,---,0.08,VWS V13.00,2013-01-16 07:18:00,
2013-01-16 02:23:00,36.3,33.7,30.08,ESE,112,1.5,1.5,90,0.04,,---,0.08,VWS V13.00,2013-01-16 07:23:00,
2013-01-16 02:28:00,37.0,34.6,30.05,East,90,0.0,1.5,91,0.00,,---,0.08,VWS V13.00,2013-01-16 07:28:00,
2013-01-16 02:33:00,37.0,34.6,30.05,North,0,0.0,1.5,91,0.00,,---,0.08,VWS V13.00,2013-01-16 07:33:00,
2013-01-16 02:38:00,37.2,34.8,30.06,NNE,22,0.0,1.5,91,0.00,,---,0.08,VWS V13.00,2013-01-16 07:38:00,
2013-01-16 02:43:00,37.2,34.8,30.06,ENE,68,0.0,0.0,91,0.00,,---,0.08,VWS V13.00,2013-01-16 07:43:00,
2013-01-16 02:48:00,37.2,34.8,30.05,ENE,68,0.0,0.0,91,0.00,,---,0.08,VWS V13.00,2013-01-16 07:48:00,
2013-01-16 02:53:00,37.2,34.8,30.04,NE,45,0.0,0.0,91,0.04,,---,0.12,VWS V13.00,2013-01-16 07:53:00,
2013-01-16 02:58:00,37.2,34.8,30.03,NE,45,0.0,0.0,91,0.04,,---,0.12,VWS V13.00,2013-01-16 07:58:00,
2013-01-16 03:03:00,37.2,34.8,30.04,NE,45,0.0,0.0,91,0.04,,---,0.12,VWS V13.00,2013-01-16 08:03:00,
2013-01-16 03:08:00,37.4,35.0,30.03,ESE,112,0.0,0.0,91,0.08,,---,0.17,VWS V13.00,2013-01-16 08:08:00,
2013-01-16 03:13:00,37.5,35.1,30.03,NE,45,0.0,1.5,91,0.08,,---,0.17,VWS V13.00,2013-01-16 08:13:00,
2013-01-16 03:18:00,37.5,35.1,30.02,NE,45,0.0,1.5,91,0.08,,---,0.17,VWS V13.00,2013-01-16 08:18:00,
2013-01-16 03:23:00,37.5,35.1,30.01,NE,45,0.0,0.0,91,0.08,,---,0.17,VWS V13.00,2013-01-16 08:23:00,
2013-01-16 03:28:00,37.5,35.1,30.00,NE,45,0.0,0.0,91,0.08,,---,0.17,VWS V13.00,2013-01-16 08:28:00,
2013-01-16 03:33:00,37.5,35.1,30.00,NE,45,0.0,0.0,91,0.08,,---,0.17,VWS V13.00,2013-01-16 08:33:00,
2013-01-16 03:38:00,37.5,35.1,30.01,NE,45,0.0,0.0,91,0.08,,---,0.17,VWS V13.00,2013-01-16 08:38:00,
2013-01-16 03:43:00,37.5,35.1,30.00,ESE,112,0.0,2.4,91,0.08,,---,0.17,VWS V13.00,2013-01-16 08:43:00,
2013-01-16 03:48:00,37.5,35.1,30.00,ESE,112,0.0,2.4,91,0.04,,---,0.17,VWS V13.00,2013-01-16 08:48:00,
2013-01-16 03:53:00,37.7,35.3,30.03,West,270,6.4,6.4,91,0.08,,---,0.20,VWS V13.00,2013-01-16 08:53:00,
2013-01-16 03:58:00,37.9,35.5,30.01,ENE,68,2.9,6.4,91,0.08,,---,0.20,VWS V13.00,2013-01-16 08:58:00,
2013-01-16 04:03:00,37.9,35.5,30.04,WSW,248,6.4,6.4,91,0.06,,---,0.22,VWS V13.00,2013-01-16 09:03:00,
2013-01-16 04:08:00,38.1,35.7,30.02,NE,45,0.8,6.4,91,0.08,,---,0.24,VWS V13.00,2013-01-16 09:08:00,
2013-01-16 04:13:00,38.1,35.7,30.02,WNW,292,5.3,6.4,91,0.08,,---,0.24,VWS V13.00,2013-01-16 09:13:00,
2013-01-16 04:18:00,38.1,35.7,30.04,NW,315,2.6,6.4,91,0.10,,---,0.27,VWS V13.00,2013-01-16 09:18:00,
2013-01-16 04:23:00,38.1,35.7,30.02,ENE,68,2.0,2.0,91,0.10,,---,0.27,VWS V13.00,2013-01-16 09:23:00,
2013-01-16 04:28:00,38.1,35.7,30.03,SW,225,0.0,2.0,91,0.12,,---,0.29,VWS V13.00,2013-01-16 09:28:00,
2013-01-16 04:33:00,38.1,35.7,30.03,NNE,22,0.0,2.0,91,0.12,,---,0.29,VWS V13.00,2013-01-16 09:33:00,
2013-01-16 04:38:00,38.1,35.7,30.04,WNW,292,2.0,2.0,91,0.12,,---,0.29,VWS V13.00,2013-01-16 09:38:00,
2013-01-16 04:43:00,38.1,35.7,30.03,NNW,338,2.6,2.6,91,0.12,,---,0.29,VWS V13.00,2013-01-16 09:43:00,
2013-01-16 04:48:00,38.1,35.7,30.03,NNW,338,4.9,4.9,91,0.08,,---,0.29,VWS V13.00,2013-01-16 09:48:00,
2013-01-16 04:53:00,37.9,35.5,30.03,NW,315,0.8,4.9,91,0.10,,---,0.31,VWS V13.00,2013-01-16 09:53:00,
2013-01-16 04:58:00,37.9,35.5,30.02,NE,45,0.0,4.9,91,0.08,,---,0.31,VWS V13.00,2013-01-16 09:58:00,
2013-01-16 05:03:00,37.7,35.3,30.03,North,0,3.1,3.5,91,0.08,,---,0.31,VWS V13.00,2013-01-16 10:03:00,
2013-01-16 05:08:00,37.7,35.3,30.02,NE,45,0.0,3.5,91,0.08,,---,0.33,VWS V13.00,2013-01-16 10:08:00,
2013-01-16 05:13:00,37.5,35.1,30.01,NE,45,2.0,3.5,91,0.06,,---,0.33,VWS V13.00,2013-01-16 10:13:00,
2013-01-16 05:18:00,37.5,35.1,30.02,North,0,2.4,3.5,91,0.06,,---,0.33,VWS V13.00,2013-01-16 10:18:00,
2013-01-16 05:23:00,37.5,35.1,30.01,NE,45,0.0,0.0,91,0.04,,---,0.33,VWS V13.00,2013-01-16 10:23:00,
2013-01-16 05:28:00,37.2,34.8,30.00,NE,45,0.0,0.0,91,0.04,,---,0.33,VWS V13.00,2013-01-16 10:28:00,
2013-01-16 05:33:00,37.2,34.8,30.02,NNW,338,2.9,2.9,91,0.04,,---,0.33,VWS V13.00,2013-01-16 10:33:00,
2013-01-16 05:38:00,37.2,34.8,30.00,NNW,338,2.9,2.9,91,0.04,,---,0.33,VWS V13.00,2013-01-16 10:38:00,
2013-01-16 05:43:00,37.2,34.8,29.99,NNW,338,2.9,2.9,91,0.04,,---,0.33,VWS V13.00,2013-01-16 10:43:00,
2013-01-16 05:48:00,37.0,34.6,29.98,NNW,338,3.5,3.5,91,0.04,,---,0.33,VWS V13.00,2013-01-16 10:48:00,
2013-01-16 05:53:00,37.0,34.6,29.99,West,270,2.2,9.1,91,0.04,,---,0.33,VWS V13.00,2013-01-16 10:53:00,
2013-01-16 05:58:00,36.8,34.4,29.97,West,270,2.2,9.1,91,0.04,,---,0.33,VWS V13.00,2013-01-16 10:58:00,
2013-01-16 06:03:00,36.8,34.4,30.03,West,270,2.2,2.2,91,0.02,,---,0.33,VWS V13.00,2013-01-16 11:03:00,
2013-01-16 06:08:00,36.8,34.4,29.98,West,270,2.2,2.2,91,0.02,,---,0.33,VWS V13.00,2013-01-16 11:08:00,
2013-01-16 06:13:00,36.8,34.4,30.00,NW,315,0.0,2.2,91,0.00,,---,0.33,VWS V13.00,2013-01-16 11:13:00,
2013-01-16 06:18:00,37.0,34.6,29.98,NW,315,0.0,2.2,91,0.00,,---,0.33,VWS V13.00,2013-01-16 11:18:00,
2013-01-16 06:23:00,37.0,34.6,29.98,NW,315,0.0,0.0,91,0.00,,---,0.33,VWS V13.00,2013-01-16 11:23:00,
2013-01-16 06:28:00,37.0,34.6,29.98,NW,315,0.0,0.0,91,0.00,,---,0.33,VWS V13.00,2013-01-16 11:28:00,
2013-01-16 06:33:00,37.0,34.6,29.98,NE,45,2.0,2.0,91,0.00,,---,0.33,VWS V13.00,2013-01-16 11:33:00,
2013-01-16 06:38:00,37.0,34.6,29.99,NE,45,0.0,2.0,91,0.00,,---,0.33,VWS V13.00,2013-01-16 11:38:00,
2013-01-16 06:43:00,37.0,34.6,29.98,ENE,68,0.0,0.0,91,0.00,,---,0.33,VWS V13.00,2013-01-16 11:43:00,
2013-01-16 06:48:00,37.0,34.6,29.99,East,90,1.3,1.3,91,0.00,,---,0.33,VWS V13.00,2013-01-16 11:48:00,
2013-01-16 06:53:00,37.2,34.8,29.99,NNE,22,2.6,2.6,91,0.00,,---,0.33,VWS V13.00,2013-01-16 11:53:00,
2013-01-16 06:58:00,37.0,34.6,29.99,North,0,0.0,2.6,91,0.00,,---,0.33,VWS V13.00,2013-01-16 11:58:00,
2013-01-16 07:03:00,37.2,34.8,30.00,ENE,68,0.0,2.4,91,0.00,,---,0.33,VWS V13.00,2013-01-16 12:03:00,
2013-01-16 07:08:00,37.2,34.8,30.00,NE,45,0.0,2.4,91,0.00,,---,0.33,VWS V13.00,2013-01-16 12:08:00,
2013-01-16 07:13:00,37.2,34.8,30.00,NE,45,0.0,2.4,91,0.00,,---,0.33,VWS V13.00,2013-01-16 12:13:00,
2013-01-16 07:18:00,37.0,34.6,29.99,East,90,1.1,2.4,91,0.00,,---,0.33,VWS V13.00,2013-01-16 12:18:00,
2013-01-16 07:23:00,37.0,34.6,29.99,NNE,22,0.0,0.0,91,0.00,,---,0.33,VWS V13.00,2013-01-16 12:23:00,
2013-01-16 07:28:00,37.0,34.6,29.99,North,0,0.0,0.0,91,0.00,,---,0.33,VWS V13.00,2013-01-16 12:28:00,
2013-01-16 07:33:00,37.2,34.8,29.99,WNW,292,0.0,0.0,91,0.00,,---,0.33,VWS V13.00,2013-01-16 12:33:00,
2013-01-16 07:38:00,37.2,34.8,29.99,NNE,22,6.2,6.2,91,0.00,,---,0.33,VWS V13.00,2013-01-16 12:38:00,
2013-01-16 07:43:00,37.2,34.8,29.99,East,90,0.0,0.0,91,0.00,,---,0.33,VWS V13.00,2013-01-16 12:43:00,
2013-01-16 07:48:00,37.2,34.8,29.98,NE,45,0.0,0.0,91,0.00,,---,0.33,VWS V13.00,2013-01-16 12:48:00,
2013-01-16 07:53:00,37.2,34.8,29.99,East,90,0.0,0.0,91,0.00,,---,0.33,VWS V13.00,2013-01-16 12:53:00,
2013-01-16 07:58:00,37.2,34.5,29.99,ENE,68,0.0,0.0,90,0.00,,---,0.33,VWS V13.00,2013-01-16 12:58:00,
2013-01-16 08:03:00,37.2,34.8,29.98,NNW,338,0.0,0.0,91,0.00,,---,0.33,VWS V13.00,2013-01-16 13:03:00,
2013-01-16 08:08:00,37.2,34.8,29.98,East,90,0.0,0.0,91,0.00,,---,0.33,VWS V13.00,2013-01-16 13:08:00,
2013-01-16 08:13:00,37.2,34.5,29.99,North,0,0.0,0.0,90,0.00,,---,0.33,VWS V13.00,2013-01-16 13:13:00,
2013-01-16 08:18:00,37.5,34.8,29.98,East,90,4.9,4.9,90,0.00,,---,0.33,VWS V13.00,2013-01-16 13:18:00,
2013-01-16 08:23:00,37.4,34.7,29.98,NNW,338,0.0,0.0,90,0.00,,---,0.33,VWS V13.00,2013-01-16 13:23:00,
2013-01-16 08:28:00,37.4,34.7,29.98,East,90,1.3,3.8,90,0.00,,---,0.33,VWS V13.00,2013-01-16 13:28:00,
2013-01-16 08:33:00,37.4,35.0,29.99,ENE,68,0.0,3.8,91,0.00,,---,0.33,VWS V13.00,2013-01-16 13:33:00,
2013-01-16 08:38:00,37.5,34.8,29.99,East,90,1.1,3.8,90,0.00,,---,0.33,VWS V13.00,2013-01-16 13:38:00,
2013-01-16 08:43:00,37.5,35.1,29.98,ENE,68,0.0,0.0,91,0.00,,---,0.33,VWS V13.00,2013-01-16 13:43:00,
2013-01-16 08:48:00,37.5,35.1,29.98,NNE,22,4.4,4.4,91,0.00,,---,0.33,VWS V13.00,2013-01-16 13:48:00,
2013-01-16 08:53:00,37.5,35.1,29.98,East,90,0.0,4.4,91,0.00,,---,0.33,VWS V13.00,2013-01-16 13:53:00,
2013-01-16 08:58:00,37.7,35.3,29.98,ENE,68,0.0,4.4,91,0.00,,---,0.33,VWS V13.00,2013-01-16 13:58:00,
2013-01-16 09:03:00,37.7,35.3,29.98,East,90,0.0,0.0,91,0.00,,---,0.33,VWS V13.00,2013-01-16 14:03:00,
2013-01-16 09:08:00,37.9,35.5,29.97,East,90,0.0,0.0,91,0.00,,---,0.33,VWS V13.00,2013-01-16 14:08:00,
2013-01-16 09:13:00,38.1,35.7,29.97,East,90,0.0,0.0,91,0.00,,---,0.33,VWS V13.00,2013-01-16 14:13:00,
2013-01-16 09:18:00,38.1,35.7,29.96,East,90,1.3,1.3,91,0.00,,---,0.33,VWS V13.00,2013-01-16 14:18:00,
2013-01-16 09:23:00,38.1,35.7,29.96,NE,45,0.0,0.0,91,0.00,,---,0.33,VWS V13.00,2013-01-16 14:23:00,
2013-01-16 09:28:00,38.4,36.0,29.97,ENE,68,0.0,0.0,91,0.00,,---,0.33,VWS V13.00,2013-01-16 14:28:00,
2013-01-16 09:33:00,38.4,36.0,29.97,ENE,68,0.0,0.4,91,0.00,,---,0.33,VWS V13.00,2013-01-16 14:33:00,
2013-01-16 09:38:00,38.4,35.7,29.97,ENE,68,0.0,0.4,90,0.00,,---,0.33,VWS V13.00,2013-01-16 14:38:00,
2013-01-16 09:43:00,38.8,36.1,29.97,ESE,112,0.0,0.0,90,0.00,,---,0.33,VWS V13.00,2013-01-16 14:43:00,
2013-01-16 09:48:00,38.8,36.4,29.97,ESE,112,0.0,0.0,91,0.00,,---,0.33,VWS V13.00,2013-01-16 14:48:00,
2013-01-16 09:53:00,39.0,36.6,29.96,ESE,112,0.0,0.0,91,0.00,,---,0.33,VWS V13.00,2013-01-16 14:53:00,
2013-01-16 09:58:00,39.3,36.9,29.96,ESE,112,0.0,0.6,91,0.00,,---,0.33,VWS V13.00,2013-01-16 14:58:00,
2013-01-16 10:03:00,39.5,36.8,29.97,ESE,112,0.0,0.0,90,0.00,,---,0.33,VWS V13.00,2013-01-16 15:03:00,
2013-01-16 10:08:00,39.7,37.0,29.98,ESE,112,0.0,0.0,90,0.00,,---,0.33,VWS V13.00,2013-01-16 15:08:00,
2013-01-16 10:13:00,39.9,37.2,29.98,ESE,112,0.0,0.0,90,0.00,,---,0.33,VWS V13.00,2013-01-16 15:13:00,
2013-01-16 10:18:00,39.9,37.2,29.96,ESE,112,0.0,0.0,90,0.02,,---,0.35,VWS V13.00,2013-01-16 15:18:00,
2013-01-16 10:23:00,40.1,37.4,29.95,ESE,112,0.0,0.0,90,0.02,,---,0.35,VWS V13.00,2013-01-16 15:23:00,
2013-01-16 10:28:00,40.2,37.5,29.96,ESE,112,0.0,0.0,90,0.02,,---,0.35,VWS V13.00,2013-01-16 15:28:00,
2013-01-16 10:33:00,40.2,37.5,29.95,ESE,112,0.0,0.0,90,0.02,,---,0.35,VWS V13.00,2013-01-16 15:33:00,
2013-01-16 10:38:00,40.8,38.1,29.96,ESE,112,0.0,0.0,90,0.02,,---,0.35,VWS V13.00,2013-01-16 15:38:00,
2013-01-16 10:43:00,40.8,38.1,29.96,SE,135,0.0,0.0,90,0.04,,---,0.37,VWS V13.00,2013-01-16 15:43:00,
2013-01-16 10:48:00,41.1,38.4,29.96,SW,225,0.0,0.0,90,0.04,,---,0.37,VWS V13.00,2013-01-16 15:48:00,
2013-01-16 10:53:00,41.1,38.7,29.96,SW,225,0.0,0.0,91,0.04,,---,0.37,VWS V13.00,2013-01-16 15:53:00,
2013-01-16 10:58:00,41.3,38.9,29.95,SW,225,0.0,0.0,91,0.04,,---,0.37,VWS V13.00,2013-01-16 15:58:00,
2013-01-16 11:03:00,41.5,39.1,29.95,SW,225,0.0,0.0,91,0.04,,---,0.37,VWS V13.00,2013-01-16 16:03:00,
2013-01-16 11:08:00,41.7,39.3,29.94,SW,225,0.0,0.0,91,0.04,,---,0.37,VWS V13.00,2013-01-16 16:08:00,
2013-01-16 11:13:00,41.9,39.5,29.94,West,270,0.0,0.0,91,0.02,,---,0.37,VWS V13.00,2013-01-16 16:13:00,
2013-01-16 11:18:00,41.9,39.5,29.95,WSW,248,1.3,1.3,91,0.04,,---,0.39,VWS V13.00,2013-01-16 16:18:00,
2013-01-16 11:23:00,42.0,39.3,29.94,West,270,0.0,0.0,90,0.04,,---,0.39,VWS V13.00,2013-01-16 16:23:00,
2013-01-16 11:28:00,42.4,39.7,29.93,West,270,0.0,2.2,90,0.06,,---,0.41,VWS V13.00,2013-01-16 16:28:00,
2013-01-16 11:33:00,42.4,39.7,29.93,SSW,202,0.0,2.2,90,0.06,,---,0.41,VWS V13.00,2013-01-16 16:33:00,
2013-01-16 11:38:00,42.4,39.7,29.93,SW,225,0.0,2.2,90,0.06,,---,0.41,VWS V13.00,2013-01-16 16:38:00,
2013-01-16 11:43:00,42.0,39.3,29.93,SW,225,0.0,0.0,90,0.04,,---,0.41,VWS V13.00,2013-01-16 16:43:00,
2013-01-16 11:48:00,42.4,39.7,29.94,WSW,248,0.0,0.0,90,0.04,,---,0.41,VWS V13.00,2013-01-16 16:48:00,
2013-01-16 11:53:00,42.4,39.7,29.95,West,270,0.0,0.0,90,0.04,,---,0.41,VWS V13.00,2013-01-16 16:53:00,
2013-01-16 11:58:00,42.4,39.7,29.94,WSW,248,0.0,5.1,90,0.04,,---,0.41,VWS V13.00,2013-01-16 16:58:00,
2013-01-16 12:03:00,42.4,39.7,29.93,WSW,248,0.0,0.0,90,0.04,,---,0.41,VWS V13.00,2013-01-16 17:03:00,
2013-01-16 12:08:00,42.4,39.7,29.91,SW,225,0.0,0.0,90,0.04,,---,0.41,VWS V13.00,2013-01-16 17:08:00,
2013-01-16 12:13:00,42.4,39.7,29.91,SW,225,1.7,1.7,90,0.02,,---,0.41,VWS V13.00,2013-01-16 17:13:00,
2013-01-16 12:18:00,42.4,39.7,29.90,SW,225,0.0,1.7,90,0.02,,---,0.41,VWS V13.00,2013-01-16 17:18:00,
2013-01-16 12:23:00,42.6,39.9,29.89,West,270,0.0,0.0,90,0.00,,---,0.41,VWS V13.00,2013-01-16 17:23:00,
2013-01-16 12:28:00,42.6,39.9,29.88,SW,225,2.2,2.2,90,0.00,,---,0.41,VWS V13.00,2013-01-16 17:28:00,
2013-01-16 12:33:00,42.6,39.9,29.90,West,270,2.4,5.1,90,0.00,,---,0.41,VWS V13.00,2013-01-16 17:33:00,
2013-01-16 12:38:00,42.6,39.9,29.90,West,270,0.6,5.1,90,0.00,,---,0.41,VWS V13.00,2013-01-16 17:38:00,
2013-01-16 12:43:00,42.6,39.6,29.89,West,270,0.0,0.0,89,0.00,,---,0.41,VWS V13.00,2013-01-16 17:43:00,
2013-01-16 12:48:00,42.9,39.9,29.90,WSW,248,0.0,0.0,89,0.00,,---,0.41,VWS V13.00,2013-01-16 17:48:00,
2013-01-16 12:53:00,42.9,39.9,29.89,WNW,292,2.2,4.0,89,0.00,,---,0.41,VWS V13.00,2013-01-16 17:53:00,
2013-01-16 12:58:00,42.9,39.9,29.89,SW,225,0.0,4.0,89,0.00,,---,0.41,VWS V13.00,2013-01-16 17:58:00,
2013-01-16 13:03:00,42.6,39.6,29.89,WSW,248,0.0,0.0,89,0.00,,---,0.41,VWS V13.00,2013-01-16 18:03:00,
2013-01-16 13:08:00,42.6,39.6,29.88,SW,225,0.0,4.6,89,0.00,,---,0.41,VWS V13.00,2013-01-16 18:08:00,
2013-01-16 13:13:00,42.6,39.6,29.86,SW,225,0.0,4.6,89,0.00,,---,0.41,VWS V13.00,2013-01-16 18:13:00,
2013-01-16 13:18:00,42.6,39.6,29.85,SSE,158,0.0,4.6,89,0.00,,---,0.41,VWS V13.00,2013-01-16 18:18:00,
2013-01-16 13:23:00,42.6,39.6,29.85,SSW,202,0.8,0.8,89,0.00,,---,0.41,VWS V13.00,2013-01-16 18:23:00,
2013-01-16 13:28:00,42.6,39.6,29.85,SSW,202,0.0,0.8,89,0.00,,---,0.41,VWS V13.00,2013-01-16 18:28:00,
2013-01-16 13:33:00,42.6,39.6,29.84,SSW,202,0.0,0.8,89,0.00,,---,0.41,VWS V13.00,2013-01-16 18:33:00,
2013-01-16 13:38:00,42.6,39.6,29.83,NNW,338,2.6,2.6,89,0.00,,---,0.41,VWS V13.00,2013-01-16 18:38:00,
2013-01-16 13:43:00,42.6,39.6,29.85,SSW,202,0.0,0.0,89,0.00,,---,0.41,VWS V13.00,2013-01-16 18:43:00,
2013-01-16 13:48:00,42.6,39.6,29.81,SSE,158,3.5,3.5,89,0.00,,---,0.41,VWS V13.00,2013-01-16 18:48:00,
2013-01-16 13:53:00,42.6,39.6,29.81,West,270,0.0,3.5,89,0.00,,---,0.41,VWS V13.00,2013-01-16 18:53:00,
2013-01-16 13:58:00,42.6,39.6,29.81,South,180,0.0,3.5,89,0.00,,---,0.41,VWS V13.00,2013-01-16 18:58:00,
2013-01-16 14:03:00,42.9,39.9,29.81,SSW,202,0.0,0.0,89,0.00,,---,0.41,VWS V13.00,2013-01-16 19:03:00,
2013-01-16 14:08:00,42.9,39.9,29.81,SW,225,0.0,2.0,89,0.00,,---,0.41,VWS V13.00,2013-01-16 19:08:00,
2013-01-16 14:13:00,42.9,39.9,29.81,West,270,0.0,2.0,89,0.00,,---,0.41,VWS V13.00,2013-01-16 19:13:00,
2013-01-16 14:18:00,43.1,40.1,29.82,SSW,202,0.0,2.0,89,0.00,,---,0.41,VWS V13.00,2013-01-16 19:18:00,
2013-01-16 14:23:00,43.3,40.3,29.82,SW,225,0.0,0.0,89,0.00,,---,0.41,VWS V13.00,2013-01-16 19:23:00,
2013-01-16 14:28:00,43.3,40.3,29.82,ESE,112,0.8,0.8,89,0.00,,---,0.41,VWS V13.00,2013-01-16 19:28:00,
2013-01-16 14:33:00,43.5,40.5,29.81,SSE,158,0.0,0.8,89,0.00,,---,0.41,VWS V13.00,2013-01-16 19:33:00,
2013-01-16 14:38:00,43.5,40.5,29.82,WSW,248,0.0,4.0,89,0.00,,---,0.41,VWS V13.00,2013-01-16 19:38:00,
2013-01-16 14:43:00,43.5,40.5,29.82,WNW,292,0.0,0.0,89,0.00,,---,0.41,VWS V13.00,2013-01-16 19:43:00,
2013-01-16 14:48:00,43.5,40.5,29.85,WNW,292,2.0,2.0,89,0.00,,---,0.41,VWS V13.00,2013-01-16 19:48:00,
2013-01-16 14:53:00,43.8,41.1,29.87,SW,225,0.0,2.0,90,0.00,,---,0.41,VWS V13.00,2013-01-16 19:53:00,
2013-01-16 14:58:00,43.8,41.1,29.87,NNW,338,0.0,2.0,90,0.00,,---,0.41,VWS V13.00,2013-01-16 19:58:00,
2013-01-16 15:03:00,44.0,41.0,29.86,West,270,3.8,3.8,89,0.00,,---,0.41,VWS V13.00,2013-01-16 20:03:00,
2013-01-16 15:08:00,44.0,41.0,29.88,NW,315,6.2,6.2,89,0.00,,---,0.41,VWS V13.00,2013-01-16 20:08:00,
2013-01-16 15:13:00,44.2,41.2,29.89,WNW,292,0.0,7.1,89,0.00,,---,0.41,VWS V13.00,2013-01-16 20:13:00,
2013-01-16 15:18:00,44.0,41.0,29.90,SW,225,4.2,7.1,89,0.00,,---,0.41,VWS V13.00,2013-01-16 20:18:00,
2013-01-16 15:23:00,43.8,40.8,29.91,NW,315,0.0,0.2,89,0.00,,---,0.41,VWS V13.00,2013-01-16 20:23:00,
2013-01-16 15:28:00,43.8,40.8,29.89,West,270,1.1,4.0,89,0.00,,---,0.41,VWS V13.00,2013-01-16 20:28:00,
2013-01-16 15:33:00,43.7,40.7,29.88,SSW,202,1.3,4.4,89,0.00,,---,0.41,VWS V13.00,2013-01-16 20:33:00,
2013-01-16 15:38:00,43.5,40.5,29.86,West,270,0.0,4.4,89,0.00,,---,0.41,VWS V13.00,2013-01-16 20:38:00,
2013-01-16 15:43:00,43.5,40.5,29.85,South,180,0.0,0.0,89,0.00,,---,0.41,VWS V13.00,2013-01-16 20:43:00,
2013-01-16 15:48:00,43.5,40.5,29.85,West,270,1.5,1.5,89,0.00,,---,0.41,VWS V13.00,2013-01-16 20:48:00,
2013-01-16 15:53:00,43.5,40.5,29.84,WNW,292,0.0,3.1,89,0.00,,---,0.41,VWS V13.00,2013-01-16 20:53:00,
2013-01-16 15:58:00,43.5,40.5,29.89,NW,315,0.0,5.8,89,0.00,,---,0.41,VWS V13.00,2013-01-16 20:58:00,
2013-01-16 16:03:00,43.5,40.5,29.88,SSW,202,0.0,0.0,89,0.00,,---,0.41,VWS V13.00,2013-01-16 21:03:00,
2013-01-16 16:08:00,43.3,40.3,29.90,West,270,0.0,3.1,89,0.00,,---,0.41,VWS V13.00,2013-01-16 21:08:00,
2013-01-16 16:13:00,43.3,40.3,29.90,WNW,292,0.0,3.1,89,0.00,,---,0.41,VWS V13.00,2013-01-16 21:13:00,
2013-01-16 16:18:00,43.1,40.1,29.90,West,270,6.9,6.9,89,0.00,,---,0.41,VWS V13.00,2013-01-16 21:18:00,
2013-01-16 16:23:00,43.1,40.1,29.90,West,270,6.9,6.9,89,0.00,,---,0.41,VWS V13.00,2013-01-16 21:23:00,
2013-01-16 16:28:00,43.1,40.1,29.91,West,270,6.9,6.9,89,0.00,,---,0.41,VWS V13.00,2013-01-16 21:28:00,
2013-01-16 16:33:00,43.1,40.1,29.91,West,270,6.9,6.9,89,0.00,,---,0.41,VWS V13.00,2013-01-16 21:33:00,
2013-01-16 16:38:00,42.9,39.9,29.92,WNW,292,0.0,6.9,89,0.00,,---,0.41,VWS V13.00,2013-01-16 21:38:00,
2013-01-16 16:43:00,42.8,39.8,29.93,WNW,292,0.8,7.1,89,0.00,,---,0.41,VWS V13.00,2013-01-16 21:43:00,
2013-01-16 16:48:00,42.6,39.6,29.93,WNW,292,6.9,7.1,89,0.00,,---,0.41,VWS V13.00,2013-01-16 21:48:00,
2013-01-16 16:53:00,42.6,39.6,29.92,East,90,0.0,7.1,89,0.00,,---,0.41,VWS V13.00,2013-01-16 21:53:00,
2013-01-16 16:58:00,42.6,39.6,29.91,NW,315,2.2,7.1,89,0.00,,---,0.41,VWS V13.00,2013-01-16 21:58:00,
2013-01-16 17:03:00,42.6,39.6,29.90,SW,225,3.8,3.8,89,0.00,,---,0.41,VWS V13.00,2013-01-16 22:03:00,
2013-01-16 17:07:00,42.4,39.4,29.91,North,0,0.0,3.8,89,0.00,,---,0.41,VWS V13.00,2013-01-16 22:07:00,
2013-01-16 17:12:00,42.2,39.2,29.89,NNW,338,0.0,3.8,89,0.00,,---,0.41,VWS V13.00,2013-01-16 22:12:00,
2013-01-16 17:17:00,42.0,39.0,29.90,NNW,338,1.5,3.8,89,0.00,,---,0.41,VWS V13.00,2013-01-16 22:17:00,
2013-01-16 17:22:00,41.9,38.9,29.92,North,0,2.0,2.9,89,0.00,,---,0.41,VWS V13.00,2013-01-16 22:22:00,
2013-01-16 17:27:00,41.7,38.7,29.92,NW,315,0.0,2.9,89,0.00,,---,0.41,VWS V13.00,2013-01-16 22:27:00,
2013-01-16 17:32:00,41.7,38.7,29.93,WNW,292,0.0,2.9,89,0.00,,---,0.41,VWS V13.00,2013-01-16 22:32:00,
2013-01-16 17:37:00,41.5,38.5,29.93,ESE,112,0.0,5.8,89,0.00,,---,0.41,VWS V13.00,2013-01-16 22:37:00,
2013-01-16 17:42:00,41.5,38.5,29.92,SSW,202,0.0,0.0,89,0.00,,---,0.41,VWS V13.00,2013-01-16 22:42:00,
2013-01-16 17:47:00,41.5,38.2,29.91,WNW,292,0.0,2.9,88,0.00,,---,0.41,VWS V13.00,2013-01-16 22:47:00,
2013-01-16 17:52:00,41.5,38.2,29.90,West,270,0.0,2.9,88,0.00,,---,0.41,VWS V13.00,2013-01-16 22:52:00,
2013-01-16 17:57:00,41.5,38.5,29.91,NNW,338,0.0,2.9,89,0.00,,---,0.41,VWS V13.00,2013-01-16 22:57:00,
2013-01-16 18:02:00,41.5,38.5,29.91,SW,225,0.0,0.0,89,0.00,,---,0.41,VWS V13.00,2013-01-16 23:02:00,
2013-01-16 18:07:00,41.5,38.5,29.90,SW,225,0.0,0.0,89,0.02,,---,0.43,VWS V13.00,2013-01-16 23:07:00,
2013-01-16 18:12:00,41.5,38.5,29.93,NNW,338,0.0,0.0,89,0.02,,---,0.43,VWS V13.00,2013-01-16 23:12:00,
2013-01-16 18:17:00,41.5,38.2,29.92,WSW,248,0.0,0.0,88,0.02,,---,0.43,VWS V13.00,2013-01-16 23:17:00,
2013-01-16 18:22:00,41.5,38.2,29.92,WNW,292,0.0,0.0,88,0.02,,---,0.43,VWS V13.00,2013-01-16 23:22:00,
2013-01-16 18:27:00,41.5,38.2,29.91,WSW,248,0.0,0.0,88,0.02,,---,0.43,VWS V13.00,2013-01-16 23:27:00,
2013-01-16 18:32:00,41.5,38.2,29.91,WSW,248,1.1,1.1,88,0.02,,---,0.43,VWS V13.00,2013-01-16 23:32:00,
2013-01-16 18:37:00,41.5,38.2,29.93,NW,315,0.0,1.1,88,0.02,,---,0.43,VWS V13.00,2013-01-16 23:37:00,
2013-01-16 18:42:00,41.5,38.2,29.95,NNW,338,0.0,0.0,88,0.02,,---,0.43,VWS V13.00,2013-01-16 23:42:00,
2013-01-16 18:47:00,41.5,38.2,29.94,WNW,292,1.5,1.5,88,0.02,,---,0.43,VWS V13.00,2013-01-16 23:47:00,
2013-01-16 18:52:00,41.3,38.0,29.96,North,0,4.0,4.0,88,0.02,,---,0.43,VWS V13.00,2013-01-16 23:52:00,
2013-01-16 18:57:00,41.3,38.0,29.96,WNW,292,0.0,4.0,88,0.02,,---,0.43,VWS V13.00,2013-01-16 23:57:00,
2013-01-16 19:02:00,41.1,37.8,29.93,WNW,292,0.0,0.0,88,0.02,,---,0.43,VWS V13.00,2013-01-17 00:02:00,
2013-01-16 19:07:00,41.1,37.8,29.94,West,270,0.0,1.5,88,0.00,,---,0.43,VWS V13.00,2013-01-17 00:07:00,
2013-01-16 19:12:00,41.1,37.8,29.95,NNW,338,0.0,1.5,88,0.00,,---,0.43,VWS V13.00,2013-01-17 00:12:00,
2013-01-16 19:17:00,41.3,38.0,29.95,WNW,292,0.0,1.5,88,0.00,,---,0.43,VWS V13.00,2013-01-17 00:17:00,
2013-01-16 19:22:00,41.1,37.8,29.95,West,270,0.0,0.0,88,0.00,,---,0.43,VWS V13.00,2013-01-17 00:22:00,
2013-01-16 19:27:00,41.1,37.8,29.93,SW,225,0.0,0.0,88,0.00,,---,0.43,VWS V13.00,2013-01-17 00:27:00,
2013-01-16 19:32:00,41.1,37.8,29.94,SW,225,0.0,0.8,88,0.00,,---,0.43,VWS V13.00,2013-01-17 00:32:00,
2013-01-16 19:37:00,41.1,37.8,29.93,SW,225,0.0,0.8,88,0.00,,---,0.43,VWS V13.00,2013-01-17 00:37:00,
2013-01-16 19:42:00,41.1,37.8,29.94,NW,315,0.0,0.0,88,0.00,,---,0.43,VWS V13.00,2013-01-17 00:42:00,
2013-01-16 19:47:00,41.1,37.8,29.93,WNW,292,0.0,0.0,88,0.00,,---,0.43,VWS V13.00,2013-01-17 00:47:00,
2013-01-16 19:52:00,41.1,37.8,29.93,WNW,292,0.0,0.0,88,0.00,,---,0.43,VWS V13.00,2013-01-17 00:52:00,
2013-01-16 19:57:00,41.1,37.8,29.93,NNE,22,0.0,0.0,88,0.00,,---,0.43,VWS V13.00,2013-01-17 00:57:00,
2013-01-16 20:02:00,41.1,37.8,29.93,West,270,0.0,0.0,88,0.00,,---,0.43,VWS V13.00,2013-01-17 01:02:00,
2013-01-16 20:07:00,41.1,37.8,29.94,SSW,202,0.0,0.0,88,0.00,,---,0.43,VWS V13.00,2013-01-17 01:07:00,
2013-01-16 20:12:00,41.1,37.8,29.94,SSW,202,0.0,0.0,88,0.00,,---,0.43,VWS V13.00,2013-01-17 01:12:00,
2013-01-16 20:17:00,41.3,38.0,29.94,SW,225,0.0,0.0,88,0.00,,---,0.43,VWS V13.00,2013-01-17 01:17:00,
2013-01-16 20:22:00,41.3,38.0,29.94,West,270,0.0,2.4,88,0.00,,---,0.43,VWS V13.00,2013-01-17 01:22:00,
2013-01-16 20:27:00,41.3,38.0,29.95,West,270,0.0,2.4,88,0.00,,---,0.43,VWS V13.00,2013-01-17 01:27:00,
2013-01-16 20:32:00,41.3,38.0,29.94,West,270,1.1,2.4,88,0.00,,---,0.43,VWS V13.00,2013-01-17 01:32:00,
2013-01-16 20:37:00,41.3,38.0,29.93,SW,225,0.0,2.4,88,0.00,,---,0.43,VWS V13.00,2013-01-17 01:37:00,
2013-01-16 20:42:00,41.3,38.0,29.95,SW,225,0.0,0.0,88,0.00,,---,0.43,VWS V13.00,2013-01-17 01:42:00,
2013-01-16 20:47:00,41.5,38.2,29.95,WSW,248,0.0,0.0,88,0.00,,---,0.43,VWS V13.00,2013-01-17 01:47:00,
2013-01-16 20:52:00,41.5,38.2,29.94,WSW,248,0.0,0.0,88,0.00,,---,0.43,VWS V13.00,2013-01-17 01:52:00,
2013-01-16 20:57:00,41.5,38.2,29.95,SW,225,0.0,0.0,88,0.00,,---,0.43,VWS V13.00,2013-01-17 01:57:00,
2013-01-16 21:02:00,41.5,38.2,29.94,NW,315,0.0,0.0,88,0.00,,---,0.43,VWS V13.00,2013-01-17 02:02:00,
2013-01-16 21:07:00,41.5,38.2,29.94,West,270,0.0,0.0,88,0.00,,---,0.43,VWS V13.00,2013-01-17 02:07:00,
2013-01-16 21:12:00,41.5,38.2,29.95,West,270,0.0,0.0,88,0.00,,---,0.43,VWS V13.00,2013-01-17 02:12:00,
2013-01-16 21:17:00,41.5,38.2,29.94,West,270,1.1,3.5,88,0.00,,---,0.43,VWS V13.00,2013-01-17 02:17:00,
2013-01-16 21:22:00,41.5,38.2,29.94,SW,225,0.0,0.0,88,0.00,,---,0.43,VWS V13.00,2013-01-17 02:22:00,
2013-01-16 21:27:00,41.5,38.2,29.95,West,270,0.6,3.3,88,0.00,,---,0.43,VWS V13.00,2013-01-17 02:27:00,
2013-01-16 21:32:00,41.5,38.2,29.94,WNW,292,0.0,3.3,88,0.00,,---,0.43,VWS V13.00,2013-01-17 02:32:00,
2013-01-16 21:37:00,41.5,38.2,29.95,SW,225,0.0,3.3,88,0.00,,---,0.43,VWS V13.00,2013-01-17 02:37:00,
2013-01-16 21:42:00,41.5,38.2,29.95,NW,315,0.0,0.0,88,0.00,,---,0.43,VWS V13.00,2013-01-17 02:42:00,
2013-01-16 21:47:00,41.5,38.2,29.94,WSW,248,0.0,2.0,88,0.00,,---,0.43,VWS V13.00,2013-01-17 02:47:00,
2013-01-16 21:52:00,41.5,38.2,29.95,SW,225,0.0,2.0,88,0.00,,---,0.43,VWS V13.00,2013-01-17 02:52:00,
2013-01-16 21:57:00,41.5,38.2,29.95,WNW,292,1.5,2.0,88,0.00,,---,0.43,VWS V13.00,2013-01-17 02:57:00,
2013-01-16 22:02:00,41.5,38.2,29.95,SW,225,0.0,0.0,88,0.00,,---,0.43,VWS V13.00,2013-01-17 03:02:00,
2013-01-16 22:07:00,41.5,38.2,29.94,WNW,292,0.0,0.0,88,0.00,,---,0.43,VWS V13.00,2013-01-17 03:07:00,
2013-01-16 22:12:00,41.5,38.2,29.94,West,270,0.0,0.8,88,0.00,,---,0.43,VWS V13.00,2013-01-17 03:12:00,
2013-01-16 22:17:00,41.5,38.2,29.93,West,270,0.0,0.8,88,0.00,,---,0.43,VWS V13.00,2013-01-17 03:17:00,
2013-01-16 22:22:00,41.5,38.2,29.94,WSW,248,0.0,0.0,88,0.00,,---,0.43,VWS V13.00,2013-01-17 03:22:00,
2013-01-16 22:27:00,41.5,38.2,29.93,West,270,0.0,0.0,88,0.00,,---,0.43,VWS V13.00,2013-01-17 03:27:00,
2013-01-16 22:32:00,41.5,38.2,29.94,WNW,292,2.6,2.6,88,0.00,,---,0.43,VWS V13.00,2013-01-17 03:32:00,
2013-01-16 22:37:00,41.5,38.2,29.95,SW,225,0.0,2.6,88,0.00,,---,0.43,VWS V13.00,2013-01-17 03:37:00,
2013-01-16 22:42:00,41.5,38.2,29.94,SW,225,0.0,0.0,88,0.00,,---,0.43,VWS V13.00,2013-01-17 03:42:00,
2013-01-16 22:47:00,41.5,38.2,29.94,NW,315,0.0,0.0,88,0.00,,---,0.43,VWS V13.00,2013-01-17 03:47:00,
2013-01-16 22:52:00,41.5,38.2,29.95,WNW,292,0.0,0.0,88,0.00,,---,0.43,VWS V13.00,2013-01-17 03:52:00,
2013-01-16 22:57:00,41.5,38.2,29.95,WNW,292,0.0,0.0,88,0.00,,---,0.43,VWS V13.00,2013-01-17 03:57:00,
2013-01-16 23:02:00,41.5,38.2,29.95,WNW,292,0.0,1.3,88,0.00,,---,0.43,VWS V13.00,2013-01-17 04:02:00,
2013-01-16 23:07:00,41.7,38.4,29.95,WNW,292,0.0,1.3,88,0.00,,---,0.43,VWS V13.00,2013-01-17 04:07:00,
2013-01-16 23:12:00,41.7,38.4,29.95,NNW,338,0.0,1.3,88,0.00,,---,0.43,VWS V13.00,2013-01-17 04:12:00,
2013-01-16 23:17:00,41.7,38.4,29.95,West,270,0.0,1.3,88,0.00,,---,0.43,VWS V13.00,2013-01-17 04:17:00,
2013-01-16 23:22:00,41.7,38.4,29.95,SW,225,0.0,0.0,88,0.00,,---,0.43,VWS V13.00,2013-01-17 04:22:00,
2013-01-16 23:27:00,41.7,38.4,29.95,WSW,248,0.0,0.0,88,0.00,,---,0.43,VWS V13.00,2013-01-17 04:27:00,
2013-01-16 23:32:00,41.7,38.4,29.95,WSW,248,0.0,0.0,88,0.00,,---,0.43,VWS V13.00,2013-01-17 04:32:00,
2013-01-16 23:37:00,41.7,38.4,29.94,West,270,0.0,0.0,88,0.00,,---,0.43,VWS V13.00,2013-01-17 04:37:00,
2013-01-16 23:42:00,41.7,38.4,29.95,West,270,0.0,0.0,88,0.00,,---,0.43,VWS V13.00,2013-01-17 04:42:00,
2013-01-16 23:47:00,41.7,38.4,29.95,WSW,248,0.0,0.0,88,0.00,,---,0.43,VWS V13.00,2013-01-17 04:47:00,
2013-01-16 23:52:00,41.7,38.4,29.96,West,270,0.0,0.0,88,0.00,,---,0.43,VWS V13.00,2013-01-17 04:52:00,
2013-01-16 23:57:00,41.7,38.4,29.95,WNW,292,0.0,0.0,88,0.00,,---,0.43,VWS V13.00,2013-01-17 04:57:00,